Shin-oh Maru — JG5594 — position and weather

sailwx.info

Track history (hours):
 
Tides and Currents Weather Stations Pressure Air Temp Water Temp Dewpoint Dewpoint Depression Visibility Wind Speed Wind Dir Waves Ship Positions

Shin-oh Maru

Last reported at 2018-May-20 09:01 UTC. Time now 2018-May-20 19:49 UTC.
Position N 35°38' E 139°46'.

Length 161 m; draft 6.8 m.

Type: Cargo ship. MMSI: 431100859.

Date/timePositionNaut miles runAvg speedWind from/ knotsBaromVisibWave heightAir tempDewpointWater temp
2018-May-20 09:01N 35°38' E 139°46'0 1.1
2018-May-20 08:55N 35°38' E 139°46'615.7
2018-May-20 08:30N 35°33' E 139°51'816.6
2018-May-20 08:00N 35°25' E 139°47'713.8
2018-May-20 07:30N 35°19' E 139°44'713.1
2018-May-20 07:00N 35°13' E 139°47'918.5
2018-May-20 06:30N 35°03' E 139°45'917.1
2018-May-20 06:00N 34°55' E 139°46'2916.9
2018-May-20 04:16N 35°04' E 140°20'  
2018-May-17 18:12N 34°59' E 140°14'521.5
2018-May-17 17:58N 34°57' E 140°09'1820.2
2018-May-17 17:04N 34°52' E 139°48'220.5
2018-May-17 16:59N 34°53' E 139°46'919.6
2018-May-17 16:30N 35°02' E 139°43'1019.4
2018-May-17 16:00N 35°12' E 139°46'613.0
2018-May-17 15:31N 35°18' E 139°44'815.3
2018-May-17 15:00N 35°26' E 139°44'917.6
2018-May-17 14:30N 35°33' E 139°51'612.8
2018-May-17 14:00N 35°38' E 139°46'0 0.0
2018-May-17 09:16N 35°38' E 139°46'312.7
2018-May-17 09:00N 35°35' E 139°48'3 6.9
2018-May-17 08:30N 35°34' E 139°52'4 8.1
2018-May-17 08:00N 35°30' E 139°52'815.0
2018-May-17 07:30N 35°24' E 139°46'611.7
2018-May-17 07:01N 35°19' E 139°44'611.8
2018-May-17 06:30N 35°13' E 139°47'917.5
2018-May-17 06:00N 35°05' E 139°45'1017.1
2018-May-17 05:25N 34°55' E 139°46'35817.1
2018-May-16 08:27N 40°36' E 141°60'295 8.4
2018-May-14 21:22N 35°45' E 140°60'1117.5
2018-May-14 20:43N 35°35' E 140°55'1018.2
2018-May-14 20:12N 35°27' E 140°48'318.0
2018-May-14 20:00N 35°25' E 140°45'1018.0
2018-May-14 19:26N 35°16' E 140°38'819.0
2018-May-14 18:59N 35°10' E 140°31'918.2
2018-May-14 18:30N 35°04' E 140°23'917.7
2018-May-14 18:00N 34°59' E 140°14'917.9
2018-May-14 17:30N 34°55' E 140°04'918.6
2018-May-14 17:00N 34°51' E 139°54'918.3
2018-May-14 16:30N 34°55' E 139°44'918.3
2018-May-14 16:00N 35°05' E 139°44'917.7
2018-May-14 15:30N 35°13' E 139°46'612.8
2018-May-14 15:00N 35°19' E 139°43'816.0
2018-May-14 14:30N 35°27' E 139°47'815.1
2018-May-14 14:01N 35°34' E 139°49'5 9.2
2018-May-14 13:30N 35°38' E 139°46'0 0.0
2018-May-14 12:53N 35°38' E 139°46'0 0.0
2018-May-14 12:29N 35°38' E 139°46'0 0.0
2018-May-14 11:50N 35°38' E 139°46'0 0.0
2018-May-14 11:20N 35°38' E 139°46'0 0.0
2018-May-14 10:56N 35°38' E 139°46'0 0.0
2018-May-14 10:05N 35°38' E 139°46'0 0.0
2018-May-14 09:53N 35°38' E 139°46'0 0.0
2018-May-14 09:29N 35°38' E 139°46'0 0.0
2018-May-14 08:29N 35°38' E 139°46'0 0.0
2018-May-14 07:59N 35°38' E 139°46'0 0.0
2018-May-14 07:20N 35°38' E 139°46'0 0.0
2018-May-14 06:50N 35°38' E 139°46'0 0.0
2018-May-14 06:26N 35°38' E 139°46'0 0.0
2018-May-14 05:59N 35°38' E 139°46'0 0.0
2018-May-14 05:26N 35°38' E 139°46'0 0.0
2018-May-14 04:59N 35°38' E 139°46'0 0.0
2018-May-14 04:29N 35°38' E 139°46'0 0.0
2018-May-14 03:53N 35°38' E 139°46'0 0.0
2018-May-14 03:23N 35°38' E 139°46'0 0.0
2018-May-14 03:00N 35°38' E 139°46'3 6.4
2018-May-14 02:31N 35°35' E 139°48'4 6.7
2018-May-14 01:55N 35°34' E 139°52'0 0.0
2018-May-14 01:28N 35°34' E 139°52'0 0.0
2018-May-14 00:55N 35°34' E 139°52'0 0.0
2018-May-14 00:25N 35°34' E 139°52'0 0.1
2018-May-13 23:58N 35°34' E 139°52'0 0.0
2018-May-13 23:28N 35°34' E 139°52'0 0.0
2018-May-13 22:58N 35°34' E 139°52'0 0.0
2018-May-13 22:25N 35°34' E 139°52'0 0.0
2018-May-13 21:55N 35°34' E 139°52'0 0.0
2018-May-13 21:25N 35°34' E 139°52'0 0.1
2018-May-13 20:58N 35°34' E 139°52'0 0.1
2018-May-13 20:22N 35°34' E 139°52'0 0.0
2018-May-13 19:58N 35°34' E 139°52'0 0.0
2018-May-13 19:28N 35°34' E 139°52'0 0.0
2018-May-13 18:58N 35°34' E 139°52'0 0.0
2018-May-13 18:25N 35°34' E 139°52'0 0.0
2018-May-13 17:55N 35°34' E 139°52'0 0.0
2018-May-13 17:25N 35°34' E 139°52'0 0.0
2018-May-13 16:58N 35°34' E 139°52'0 0.1
2018-May-13 16:28N 35°34' E 139°52'0 0.1
2018-May-13 15:58N 35°34' E 139°52'0 0.0
2018-May-13 15:25N 35°34' E 139°52'0 0.0
2018-May-13 14:58N 35°34' E 139°52'0 0.1
2018-May-13 14:28N 35°34' E 139°52'0 0.1
2018-May-13 13:55N 35°34' E 139°52'0 0.1
2018-May-13 13:28N 35°34' E 139°52'0 0.1
2018-May-13 12:58N 35°34' E 139°52'0 0.1
2018-May-13 12:28N 35°34' E 139°52'0 0.0
2018-May-13 11:58N 35°34' E 139°52'0 0.0
2018-May-13 11:22N 35°34' E 139°52'0 0.0
2018-May-13 10:58N 35°34' E 139°52'0 0.1
2018-May-13 10:28N 35°34' E 139°52'0 0.1
2018-May-13 09:58N 35°34' E 139°52'0 0.1
2018-May-13 09:25N 35°34' E 139°52'0 0.1
2018-May-13 08:55N 35°34' E 139°52'0 0.1
2018-May-13 08:25N 35°34' E 139°52'0 0.2
2018-May-13 07:59N 35°34' E 139°52'613.7
2018-May-13 07:30N 35°27' E 139°50'815.4
2018-May-13 07:00N 35°21' E 139°45'612.4
2018-May-13 06:30N 35°15' E 139°47'917.3
2018-May-13 06:01N 35°06' E 139°46'1019.0
2018-May-13 05:30N 34°57' E 139°44'1315.2
2018-May-13 04:38N 34°53' E 139°59'418.0
2018-May-13 04:26N 34°55' E 140°03'817.7
2018-May-13 03:59N 34°59' E 140°11'817.6
2018-May-13 03:30N 35°04' E 140°20'41512.4
2018-May-11 18:06N 41°54' E 141°36'218.1
2018-May-11 17:59N 41°52' E 141°36'918.2
2018-May-11 17:28N 41°43' E 141°37'917.5
2018-May-11 16:57N 41°34' E 141°37'917.7
2018-May-11 16:28N 41°25' E 141°39'37017.9
2018-May-10 19:48N 35°19' E 140°40'919.9
2018-May-10 19:20N 35°11' E 140°33'819.7
2018-May-10 18:54N 35°05' E 140°26'1118.2
2018-May-10 18:18N 34°59' E 140°15'618.6
2018-May-10 18:00N 34°57' E 140°08'1317.5
2018-May-10 17:15N 34°51' E 139°54'418.1
2018-May-10 17:00N 34°52' E 139°49'917.4
2018-May-10 16:30N 34°59' E 139°43'1019.3
2018-May-10 16:00N 35°09' E 139°45'714.9
2018-May-10 15:30N 35°16' E 139°45'715.0
2018-May-10 15:01N 35°24' E 139°43'918.7
2018-May-10 14:31N 35°30' E 139°51'815.2
2018-May-10 14:00N 35°37' E 139°46'1 1.7
2018-May-10 13:30N 35°38' E 139°46'0 0.0
2018-May-10 13:00N 35°38' E 139°46'0 0.0
2018-May-10 12:27N 35°38' E 139°46'0 0.0
2018-May-10 11:57N 35°38' E 139°46'0 0.0
2018-May-10 11:24N 35°38' E 139°46'0 0.0
2018-May-10 11:00N 35°38' E 139°46'0 0.0
2018-May-10 10:27N 35°38' E 139°46'0 0.0
2018-May-10 09:57N 35°38' E 139°46'0 0.0
2018-May-10 09:30N 35°38' E 139°46'  
Track history (hours):
 
Tides and Currents Weather Stations Pressure Air Temp Water Temp Dewpoint Dewpoint Depression Visibility Wind Speed Wind Dir Waves Ship Positions

Shin-oh Maru

Last reported at 2018-May-20 09:01 UTC. Time now 2018-May-20 19:49 UTC.
Position N 35°38' E 139°46'.

Length 161 m; draft 6.8 m.

Type: Cargo ship. MMSI: 431100859.

Date/timePositionNaut miles runAvg speedWind from/ knotsBaromVisibWave heightAir tempDewpointWater temp
2018-May-20 09:01N 35°38' E 139°46'0 1.1
2018-May-20 08:55N 35°38' E 139°46'615.7
2018-May-20 08:30N 35°33' E 139°51'816.6
2018-May-20 08:00N 35°25' E 139°47'713.8
2018-May-20 07:30N 35°19' E 139°44'713.1
2018-May-20 07:00N 35°13' E 139°47'918.5
2018-May-20 06:30N 35°03' E 139°45'917.1
2018-May-20 06:00N 34°55' E 139°46'2916.9
2018-May-20 04:16N 35°04' E 140°20'  
2018-May-17 18:12N 34°59' E 140°14'521.5
2018-May-17 17:58N 34°57' E 140°09'1820.2
2018-May-17 17:04N 34°52' E 139°48'220.5
2018-May-17 16:59N 34°53' E 139°46'919.6
2018-May-17 16:30N 35°02' E 139°43'1019.4
2018-May-17 16:00N 35°12' E 139°46'613.0
2018-May-17 15:31N 35°18' E 139°44'815.3
2018-May-17 15:00N 35°26' E 139°44'917.6
2018-May-17 14:30N 35°33' E 139°51'612.8
2018-May-17 14:00N 35°38' E 139°46'0 0.0
2018-May-17 09:16N 35°38' E 139°46'312.7
2018-May-17 09:00N 35°35' E 139°48'3 6.9
2018-May-17 08:30N 35°34' E 139°52'4 8.1
2018-May-17 08:00N 35°30' E 139°52'815.0
2018-May-17 07:30N 35°24' E 139°46'611.7
2018-May-17 07:01N 35°19' E 139°44'611.8
2018-May-17 06:30N 35°13' E 139°47'917.5
2018-May-17 06:00N 35°05' E 139°45'1017.1
2018-May-17 05:25N 34°55' E 139°46'35817.1
2018-May-16 08:27N 40°36' E 141°60'295 8.4
2018-May-14 21:22N 35°45' E 140°60'1117.5
2018-May-14 20:43N 35°35' E 140°55'1018.2
2018-May-14 20:12N 35°27' E 140°48'318.0
2018-May-14 20:00N 35°25' E 140°45'1018.0
2018-May-14 19:26N 35°16' E 140°38'819.0
2018-May-14 18:59N 35°10' E 140°31'918.2
2018-May-14 18:30N 35°04' E 140°23'917.7
2018-May-14 18:00N 34°59' E 140°14'917.9
2018-May-14 17:30N 34°55' E 140°04'918.6
2018-May-14 17:00N 34°51' E 139°54'918.3
2018-May-14 16:30N 34°55' E 139°44'918.3
2018-May-14 16:00N 35°05' E 139°44'917.7
2018-May-14 15:30N 35°13' E 139°46'612.8
2018-May-14 15:00N 35°19' E 139°43'816.0
2018-May-14 14:30N 35°27' E 139°47'815.1
2018-May-14 14:01N 35°34' E 139°49'5 9.2
2018-May-14 13:30N 35°38' E 139°46'0 0.0
2018-May-14 12:53N 35°38' E 139°46'0 0.0
2018-May-14 12:29N 35°38' E 139°46'0 0.0
2018-May-14 11:50N 35°38' E 139°46'0 0.0
2018-May-14 11:20N 35°38' E 139°46'0 0.0
2018-May-14 10:56N 35°38' E 139°46'0 0.0
2018-May-14 10:05N 35°38' E 139°46'0 0.0
2018-May-14 09:53N 35°38' E 139°46'0 0.0
2018-May-14 09:29N 35°38' E 139°46'0 0.0
2018-May-14 08:29N 35°38' E 139°46'0 0.0
2018-May-14 07:59N 35°38' E 139°46'0 0.0
2018-May-14 07:20N 35°38' E 139°46'0 0.0
2018-May-14 06:50N 35°38' E 139°46'0 0.0
2018-May-14 06:26N 35°38' E 139°46'0 0.0
2018-May-14 05:59N 35°38' E 139°46'0 0.0
2018-May-14 05:26N 35°38' E 139°46'0 0.0
2018-May-14 04:59N 35°38' E 139°46'0 0.0
2018-May-14 04:29N 35°38' E 139°46'0 0.0
2018-May-14 03:53N 35°38' E 139°46'0 0.0
2018-May-14 03:23N 35°38' E 139°46'0 0.0
2018-May-14 03:00N 35°38' E 139°46'3 6.4
2018-May-14 02:31N 35°35' E 139°48'4 6.7
2018-May-14 01:55N 35°34' E 139°52'0 0.0
2018-May-14 01:28N 35°34' E 139°52'0 0.0
2018-May-14 00:55N 35°34' E 139°52'0 0.0
2018-May-14 00:25N 35°34' E 139°52'0 0.1
2018-May-13 23:58N 35°34' E 139°52'0 0.0
2018-May-13 23:28N 35°34' E 139°52'0 0.0
2018-May-13 22:58N 35°34' E 139°52'0 0.0
2018-May-13 22:25N 35°34' E 139°52'0 0.0
2018-May-13 21:55N 35°34' E 139°52'0 0.0
2018-May-13 21:25N 35°34' E 139°52'0 0.1
2018-May-13 20:58N 35°34' E 139°52'0 0.1
2018-May-13 20:22N 35°34' E 139°52'0 0.0
2018-May-13 19:58N 35°34' E 139°52'0 0.0
2018-May-13 19:28N 35°34' E 139°52'0 0.0
2018-May-13 18:58N 35°34' E 139°52'0 0.0
2018-May-13 18:25N 35°34' E 139°52'0 0.0
2018-May-13 17:55N 35°34' E 139°52'0 0.0
2018-May-13 17:25N 35°34' E 139°52'0 0.0
2018-May-13 16:58N 35°34' E 139°52'0 0.1
2018-May-13 16:28N 35°34' E 139°52'0 0.1
2018-May-13 15:58N 35°34' E 139°52'0 0.0
2018-May-13 15:25N 35°34' E 139°52'0 0.0
2018-May-13 14:58N 35°34' E 139°52'0 0.1
2018-May-13 14:28N 35°34' E 139°52'0 0.1
2018-May-13 13:55N 35°34' E 139°52'0 0.1
2018-May-13 13:28N 35°34' E 139°52'0 0.1
2018-May-13 12:58N 35°34' E 139°52'0 0.1
2018-May-13 12:28N 35°34' E 139°52'0 0.0
2018-May-13 11:58N 35°34' E 139°52'0 0.0
2018-May-13 11:22N 35°34' E 139°52'0 0.0
2018-May-13 10:58N 35°34' E 139°52'0 0.1
2018-May-13 10:28N 35°34' E 139°52'0 0.1
2018-May-13 09:58N 35°34' E 139°52'0 0.1
2018-May-13 09:25N 35°34' E 139°52'0 0.1
2018-May-13 08:55N 35°34' E 139°52'0 0.1
2018-May-13 08:25N 35°34' E 139°52'0 0.2
2018-May-13 07:59N 35°34' E 139°52'613.7
2018-May-13 07:30N 35°27' E 139°50'815.4
2018-May-13 07:00N 35°21' E 139°45'612.4
2018-May-13 06:30N 35°15' E 139°47'917.3
2018-May-13 06:01N 35°06' E 139°46'1019.0
2018-May-13 05:30N 34°57' E 139°44'1315.2
2018-May-13 04:38N 34°53' E 139°59'418.0
2018-May-13 04:26N 34°55' E 140°03'817.7
2018-May-13 03:59N 34°59' E 140°11'817.6
2018-May-13 03:30N 35°04' E 140°20'41512.4
2018-May-11 18:06N 41°54' E 141°36'218.1
2018-May-11 17:59N 41°52' E 141°36'918.2
2018-May-11 17:28N 41°43' E 141°37'917.5
2018-May-11 16:57N 41°34' E 141°37'917.7
2018-May-11 16:28N 41°25' E 141°39'37017.9
2018-May-10 19:48N 35°19' E 140°40'919.9
2018-May-10 19:20N 35°11' E 140°33'819.7
2018-May-10 18:54N 35°05' E 140°26'1118.2
2018-May-10 18:18N 34°59' E 140°15'618.6
2018-May-10 18:00N 34°57' E 140°08'1317.5
2018-May-10 17:15N 34°51' E 139°54'418.1
2018-May-10 17:00N 34°52' E 139°49'917.4
2018-May-10 16:30N 34°59' E 139°43'1019.3
2018-May-10 16:00N 35°09' E 139°45'714.9
2018-May-10 15:30N 35°16' E 139°45'715.0
2018-May-10 15:01N 35°24' E 139°43'918.7
2018-May-10 14:31N 35°30' E 139°51'815.2
2018-May-10 14:00N 35°37' E 139°46'1 1.7
2018-May-10 13:30N 35°38' E 139°46'0 0.0
2018-May-10 13:00N 35°38' E 139°46'0 0.0
2018-May-10 12:27N 35°38' E 139°46'0 0.0
2018-May-10 11:57N 35°38' E 139°46'0 0.0
2018-May-10 11:24N 35°38' E 139°46'0 0.0
2018-May-10 11:00N 35°38' E 139°46'0 0.0
2018-May-10 10:27N 35°38' E 139°46'0 0.0
2018-May-10 09:57N 35°38' E 139°46'0 0.0
2018-May-10 09:30N 35°38' E 139°46'  

Dump ship's entire track history